Branchton, PA (16021)

3:50 PM EST on March 04, 2015 (GMT -0500)
Grove City | Change Station
CLOSE
Current Station
Personal Weather Station
Location: Grove City, PA
Elevation: 1250 ft
Nearby Weather Stations

Elev 1250 ft 41.12 °N, 80.11 °W | Updated 34 seconds ago

Overcast
Overcast
34.8 °F
Feels Like 30 °F
N
4.9
Wind Variable Wind from West
Gusts 5.8 mph

Today
High -- | Low -- °F
--% Chance of Precip.
Yesterday
High -- | Low -- °F
Precip. -- in
6:49 AM 6:14 PM
Waxing Gibbous, 99% visible
Pressure 29.92 in
Visibility 8.0 miles
Clouds Mostly Cloudy 1500 ft
Mostly Cloudy 2000 ft
Windchill 30 °F
Dew Point 31 °F
Humidity 85%
Rainfall 0.11 in
Snow Depth Not available.
UV 2 out of 12
Pollen .50 out of 12
Air Quality Not available.
Flu Activity Not available.
METAR KBTP 042015Z AUTO 28006KT 8SM BKN015 BKN020 01/M02 A2992 RMK AO1

More Conditions Fewer Conditions

Pressure 29.92 in
Visibility 8.0 miles
Clouds Mostly Cloudy 1500 ft
Mostly Cloudy 2000 ft
Windchill 30 °F
Dew Point 31 °F
Humidity 85%
Rainfall 0.11 in
Snow Depth Not available.
UV 2 out of 12
Pollen .50 out of 12
Air Quality Not available.
Flu Activity Not available.
METAR KBTP 042015Z AUTO 28006KT 8SM BKN015 BKN020 01/M02 A2992 RMK AO1

More Conditions Fewer Conditions

10-Day Weather Forecast

Almanac

Astronomy

Mar. 04, 2015 Rise Set
Actual Time
Civil Twilight
Nautical Twilight
Astronomical Twilight
Moon
Length of Visible Light
Length of Day
Tomorrow will be .
, % of the Moon is Illuminated

Today's Extremes

State Highs State Lows

Community

WunderPhotos

Upload Photos

1,802,578 photos uploaded!

WunderBlogs® & News

Nearby

Air Quality

  Air Quality AQ Index Pollutant
Not available.

Snow Depth

Station Depth Elevation

Earthquake Activity

City Distance Mag. Time & Date
Minimum magnitude displayed is 2.5.

Coastal Water Temperatures

Place Temperature

Nearby Weather Stations